createdAt,value
2022-10-08T00:02:04.843Z,13.90
2022-10-08T00:04:31.856Z,13.90
2022-10-08T00:06:58.999Z,13.80
2022-10-08T00:09:25.828Z,13.80
2022-10-08T00:11:52.647Z,13.80
2022-10-08T00:14:23.455Z,13.70
2022-10-08T00:16:50.499Z,13.70
2022-10-08T00:19:17.664Z,13.70
2022-10-08T00:21:45.643Z,13.70
2022-10-08T00:24:14.529Z,13.70
2022-10-08T00:26:44.321Z,13.70
2022-10-08T00:29:13.852Z,13.60
2022-10-08T00:31:45.319Z,13.60
2022-10-08T00:34:14.784Z,13.60
2022-10-08T00:36:42.553Z,13.60
2022-10-08T00:39:12.611Z,13.60
2022-10-08T00:41:42.792Z,13.60
2022-10-08T00:44:53.524Z,13.60
2022-10-08T00:47:28.975Z,13.60
2022-10-08T00:49:58.999Z,13.50
2022-10-08T00:52:28.705Z,13.50
2022-10-08T00:54:56.940Z,13.50
2022-10-08T00:57:24.020Z,13.50
2022-10-08T00:59:51.352Z,13.50
2022-10-08T01:02:28.660Z,13.50
2022-10-08T01:04:55.779Z,13.50
2022-10-08T01:07:26.476Z,13.50
2022-10-08T01:10:06.588Z,13.50
2022-10-08T01:12:45.402Z,13.50
2022-10-08T01:15:22.319Z,13.50
2022-10-08T01:18:01.393Z,13.50
2022-10-08T01:20:37.170Z,13.50
2022-10-08T01:23:32.593Z,13.60
2022-10-08T01:26:11.751Z,13.50
2022-10-08T01:28:45.563Z,13.50
2022-10-08T01:31:19.169Z,13.50
2022-10-08T01:33:52.263Z,13.50
2022-10-08T01:36:21.376Z,13.50
2022-10-08T01:38:57.643Z,13.50
2022-10-08T01:41:26.522Z,13.50
2022-10-08T01:44:02.504Z,13.50
2022-10-08T01:46:31.818Z,13.50
2022-10-08T01:49:04.901Z,13.50
2022-10-08T01:51:38.091Z,13.60
2022-10-08T01:54:10.037Z,13.50
2022-10-08T01:56:40.150Z,13.60
2022-10-08T01:59:13.455Z,13.60
2022-10-08T02:01:50.907Z,13.60
2022-10-08T02:04:34.694Z,13.60
2022-10-08T02:07:05.780Z,13.50
2022-10-08T02:09:35.839Z,13.60
2022-10-08T02:12:03.897Z,13.50
2022-10-08T02:14:34.302Z,13.60
2022-10-08T02:17:34.080Z,13.50
2022-10-08T02:20:05.745Z,13.50
2022-10-08T02:22:36.957Z,13.50
2022-10-08T02:25:11.646Z,13.40
2022-10-08T02:27:46.291Z,13.50
2022-10-08T02:30:14.917Z,13.40
2022-10-08T02:32:49.248Z,13.40
2022-10-08T02:35:19.808Z,13.40
2022-10-08T02:37:52.855Z,13.40
2022-10-08T02:40:21.081Z,13.40
2022-10-08T02:42:54.746Z,13.40
2022-10-08T02:45:27.968Z,13.40
2022-10-08T02:48:02.409Z,13.40
2022-10-08T02:50:32.955Z,13.40
2022-10-08T02:53:01.056Z,13.30
2022-10-08T02:55:36.971Z,13.30
2022-10-08T02:58:07.191Z,13.30
2022-10-08T03:00:41.549Z,13.30
2022-10-08T03:03:12.512Z,13.20
2022-10-08T03:05:41.993Z,13.20
2022-10-08T03:08:12.572Z,13.20
2022-10-08T03:10:41.949Z,13.10
2022-10-08T03:13:10.571Z,13.10
2022-10-08T03:15:40.899Z,13.10
2022-10-08T03:18:10.459Z,13.10
2022-10-08T03:20:42.681Z,13.10
2022-10-08T03:23:09.962Z,13.00
2022-10-08T03:25:36.770Z,13.00
2022-10-08T03:28:06.431Z,13.00
2022-10-08T03:30:33.822Z,13.00
2022-10-08T03:33:03.585Z,13.00
2022-10-08T03:35:30.341Z,13.00
2022-10-08T03:37:57.219Z,13.00
2022-10-08T03:40:24.172Z,13.00
2022-10-08T03:42:51.460Z,13.00
2022-10-08T03:45:18.314Z,13.00
2022-10-08T03:47:50.332Z,13.00
2022-10-08T03:50:18.792Z,13.00
2022-10-08T03:52:46.079Z,13.00
2022-10-08T03:55:13.101Z,13.00
2022-10-08T03:57:40.058Z,12.90
2022-10-08T04:00:08.148Z,12.90
2022-10-08T04:02:38.545Z,12.90
2022-10-08T04:05:06.678Z,12.90
2022-10-08T04:07:34.850Z,12.80
2022-10-08T04:10:01.619Z,12.80
2022-10-08T04:12:29.686Z,12.80
2022-10-08T04:14:56.540Z,12.70
2022-10-08T04:17:23.670Z,12.70
2022-10-08T04:19:53.366Z,12.60
2022-10-08T04:22:20.135Z,12.60
2022-10-08T04:24:48.412Z,12.60
2022-10-08T04:27:15.361Z,12.60
2022-10-08T04:29:42.721Z,12.60
2022-10-08T04:32:09.540Z,12.50
2022-10-08T04:34:36.802Z,12.50
2022-10-08T04:37:03.569Z,12.50
2022-10-08T04:39:30.434Z,12.40
2022-10-08T04:41:58.623Z,12.40
2022-10-08T04:44:28.466Z,12.40
2022-10-08T04:46:55.686Z,12.40
2022-10-08T04:49:22.494Z,12.40
2022-10-08T04:51:49.759Z,12.40
2022-10-08T04:54:16.548Z,12.40
2022-10-08T04:56:43.842Z,12.30
2022-10-08T04:59:12.041Z,12.30
2022-10-08T05:01:39.023Z,12.30
2022-10-08T05:04:05.915Z,12.30
2022-10-08T05:06:33.846Z,12.30
2022-10-08T05:09:03.171Z,12.30
2022-10-08T05:11:31.278Z,12.20
2022-10-08T05:13:59.375Z,12.20
2022-10-08T05:16:27.773Z,12.20
2022-10-08T05:18:54.894Z,12.20
2022-10-08T05:21:23.896Z,12.10
2022-10-08T05:23:54.442Z,12.00
2022-10-08T05:26:35.907Z,11.90
2022-10-08T05:29:11.139Z,11.90
2022-10-08T05:31:39.862Z,11.90
2022-10-08T05:34:06.627Z,11.90
2022-10-08T05:36:34.545Z,11.90
2022-10-08T05:39:04.069Z,11.80
2022-10-08T05:41:33.091Z,11.80
2022-10-08T05:44:02.080Z,11.80
2022-10-08T05:46:30.476Z,11.80
2022-10-08T05:49:02.048Z,11.80
2022-10-08T05:51:29.735Z,11.70
2022-10-08T05:53:58.745Z,11.70
2022-10-08T05:56:26.651Z,11.70
2022-10-08T05:58:54.423Z,11.70
2022-10-08T06:01:23.556Z,11.70
2022-10-08T06:03:51.330Z,11.60
2022-10-08T06:06:19.826Z,11.60
2022-10-08T06:08:47.593Z,11.60
2022-10-08T06:11:14.441Z,11.50
2022-10-08T06:13:41.998Z,11.50
2022-10-08T06:16:11.997Z,11.50
2022-10-08T06:18:42.813Z,11.50
2022-10-08T06:21:12.018Z,11.50
2022-10-08T06:23:44.995Z,11.40
2022-10-08T06:26:12.232Z,11.40
2022-10-08T06:28:40.032Z,11.50
2022-10-08T06:31:07.926Z,11.40
2022-10-08T06:33:42.802Z,11.50
2022-10-08T06:36:15.288Z,11.40
2022-10-08T06:38:48.782Z,11.50
2022-10-08T06:41:15.892Z,11.40
2022-10-08T06:43:43.096Z,11.50
2022-10-08T06:46:10.277Z,11.50
2022-10-08T06:48:37.468Z,11.50
2022-10-08T06:51:07.059Z,11.50
2022-10-08T06:53:34.553Z,11.60
2022-10-08T06:56:05.670Z,11.50
2022-10-08T06:58:34.716Z,11.60
2022-10-08T07:01:03.822Z,11.60
2022-10-08T07:03:31.274Z,11.60
2022-10-08T07:06:00.184Z,11.60
2022-10-08T07:08:27.349Z,11.70
2022-10-08T07:10:54.376Z,11.80
2022-10-08T07:13:22.876Z,11.80
2022-10-08T07:15:50.626Z,11.90
2022-10-08T07:18:17.477Z,11.90
2022-10-08T07:20:44.908Z,11.90
2022-10-08T07:23:11.700Z,12.00
2022-10-08T07:25:39.179Z,12.10
2022-10-08T07:28:06.072Z,12.30
2022-10-08T07:30:36.832Z,12.50
2022-10-08T07:33:06.319Z,12.70
2022-10-08T07:35:33.774Z,12.90
2022-10-08T07:38:00.636Z,13.10
2022-10-08T07:40:28.001Z,13.40
2022-10-08T07:42:54.981Z,13.60
2022-10-08T07:45:22.708Z,13.80
2022-10-08T07:47:51.120Z,14.10
2022-10-08T07:50:18.136Z,14.40
2022-10-08T07:52:45.666Z,14.60
2022-10-08T07:55:12.682Z,14.90
2022-10-08T07:57:39.626Z,15.30
2022-10-08T08:00:08.019Z,15.60
2022-10-08T08:02:35.308Z,15.90
2022-10-08T08:05:04.054Z,16.30
2022-10-08T08:07:30.898Z,16.70
2022-10-08T08:09:57.987Z,17.10
2022-10-08T08:12:25.073Z,17.40
2022-10-08T08:14:52.603Z,17.60
2022-10-08T08:17:19.637Z,17.90
2022-10-08T08:19:46.733Z,18.10
2022-10-08T08:22:14.864Z,18.40
2022-10-08T08:24:42.156Z,18.60
2022-10-08T08:27:09.034Z,18.90
2022-10-08T08:29:36.336Z,19.00
2022-10-08T08:32:03.643Z,19.30
2022-10-08T08:34:33.590Z,19.50
2022-10-08T08:37:00.792Z,19.70
2022-10-08T08:39:30.977Z,19.90
2022-10-08T08:42:12.909Z,20.10
2022-10-08T08:44:42.050Z,20.40
2022-10-08T08:47:15.928Z,20.50
2022-10-08T08:49:45.240Z,20.70
2022-10-08T08:52:14.943Z,20.90
2022-10-08T08:54:45.577Z,21.00
2022-10-08T08:57:31.638Z,21.00
2022-10-08T09:00:04.637Z,21.00
2022-10-08T09:02:35.850Z,21.00
2022-10-08T09:05:08.127Z,21.20
2022-10-08T09:07:42.066Z,21.50
2022-10-08T09:10:16.814Z,21.70
2022-10-08T09:12:44.984Z,21.90
2022-10-08T09:15:19.601Z,22.10
2022-10-08T09:17:51.647Z,22.40
2022-10-08T09:20:21.319Z,22.50
2022-10-08T09:22:50.057Z,22.70
2022-10-08T09:25:21.375Z,22.70
2022-10-08T09:27:50.900Z,22.90
2022-10-08T09:30:29.318Z,22.90
2022-10-08T09:32:59.291Z,22.70
2022-10-08T09:35:27.205Z,22.40
2022-10-08T09:37:56.782Z,21.90
2022-10-08T09:40:26.867Z,21.80
2022-10-08T09:43:11.758Z,21.50
2022-10-08T09:45:43.721Z,21.00
2022-10-08T09:48:20.993Z,20.30
2022-10-08T09:51:07.469Z,19.70
2022-10-08T09:53:41.315Z,19.20
2022-10-08T09:56:10.313Z,19.10
2022-10-08T09:58:48.989Z,19.40
2022-10-08T10:01:18.164Z,19.90
2022-10-08T10:03:49.995Z,20.40
2022-10-08T10:06:28.984Z,20.60
2022-10-08T10:09:00.720Z,20.80
2022-10-08T10:11:41.855Z,20.70
2022-10-08T10:14:19.523Z,20.40
2022-10-08T10:16:49.269Z,19.90
2022-10-08T10:19:20.287Z,19.50
2022-10-08T10:21:54.458Z,19.20
2022-10-08T10:24:32.003Z,18.90
2022-10-08T10:27:08.814Z,18.50
2022-10-08T10:29:50.104Z,18.30
2022-10-08T10:32:21.282Z,18.10
2022-10-08T10:35:00.593Z,17.90
2022-10-08T10:37:35.276Z,17.80
2022-10-08T10:40:23.468Z,17.70
2022-10-08T10:42:58.240Z,17.60
2022-10-08T10:45:31.075Z,17.50
2022-10-08T10:47:58.144Z,17.40
2022-10-08T10:50:33.343Z,17.20
2022-10-08T10:53:10.830Z,17.10
2022-10-08T10:55:44.108Z,17.10
2022-10-08T10:58:31.248Z,17.00
2022-10-08T11:01:08.001Z,17.00
2022-10-08T11:03:42.823Z,17.00
2022-10-08T11:06:32.206Z,17.00
2022-10-08T11:09:02.874Z,17.10
2022-10-08T11:11:40.025Z,17.20
2022-10-08T11:14:21.193Z,17.40
2022-10-08T11:17:01.108Z,17.40
2022-10-08T11:19:38.893Z,17.40
2022-10-08T11:22:14.777Z,17.50
2022-10-08T11:24:56.534Z,17.60
2022-10-08T11:27:30.609Z,17.60
2022-10-08T11:30:03.117Z,17.50
2022-10-08T11:32:31.518Z,17.50
2022-10-08T11:35:06.535Z,17.50
2022-10-08T11:37:41.071Z,17.50
2022-10-08T11:40:19.613Z,17.60
2022-10-08T11:42:54.990Z,17.50
2022-10-08T11:45:36.222Z,17.50
2022-10-08T11:48:30.767Z,17.50
2022-10-08T11:51:38.845Z,17.60
2022-10-08T11:54:15.179Z,17.60
2022-10-08T11:56:52.294Z,17.60
2022-10-08T11:59:39.483Z,17.60
2022-10-08T12:02:23.336Z,17.60
2022-10-08T12:04:51.933Z,17.60
2022-10-08T12:07:24.768Z,17.60
2022-10-08T12:10:20.210Z,17.70
2022-10-08T12:13:03.876Z,17.70
2022-10-08T12:15:55.423Z,17.80
2022-10-08T12:18:44.691Z,17.90
2022-10-08T12:21:56.963Z,17.80
2022-10-08T12:24:51.668Z,17.80
2022-10-08T12:27:30.226Z,17.90
2022-10-08T12:29:59.774Z,17.90
2022-10-08T12:32:27.948Z,17.90
2022-10-08T12:34:56.963Z,17.90
2022-10-08T12:38:00.608Z,17.90
2022-10-08T12:40:35.238Z,17.80
2022-10-08T12:43:17.507Z,17.80
2022-10-08T12:45:56.546Z,17.70
2022-10-08T12:48:33.890Z,17.60
2022-10-08T12:51:18.715Z,17.50
2022-10-08T12:53:46.548Z,17.40
2022-10-08T12:56:26.040Z,17.20
2022-10-08T12:58:54.199Z,17.10
2022-10-08T13:01:21.947Z,17.10
2022-10-08T13:04:08.045Z,16.90
2022-10-08T13:06:36.388Z,16.90
2022-10-08T13:09:18.410Z,16.90
2022-10-08T13:11:45.511Z,16.90
2022-10-08T13:14:24.675Z,16.90
2022-10-08T13:16:51.736Z,16.80
2022-10-08T13:19:26.450Z,16.90
2022-10-08T13:22:00.752Z,16.80
2022-10-08T13:24:36.591Z,16.80
2022-10-08T13:27:04.288Z,16.80
2022-10-08T13:29:33.932Z,16.70
2022-10-08T13:32:03.862Z,16.70
2022-10-08T13:34:39.774Z,16.70
2022-10-08T13:37:12.008Z,16.80
2022-10-08T13:39:42.645Z,16.70
2022-10-08T13:42:14.274Z,16.70
2022-10-08T13:44:42.496Z,16.70
2022-10-08T13:47:12.625Z,16.70
2022-10-08T13:49:40.421Z,16.60
2022-10-08T13:52:11.345Z,16.60
2022-10-08T13:54:42.204Z,16.70
2022-10-08T13:57:10.186Z,16.70
2022-10-08T13:59:37.612Z,16.70
2022-10-08T14:02:05.344Z,16.70
2022-10-08T14:04:32.479Z,16.70
2022-10-08T14:07:00.749Z,16.70
2022-10-08T14:09:30.425Z,16.70
2022-10-08T14:12:01.326Z,16.60
2022-10-08T14:14:28.836Z,16.50
2022-10-08T14:16:55.687Z,16.50
2022-10-08T14:19:25.864Z,16.40
2022-10-08T14:21:55.642Z,16.40
2022-10-08T14:24:23.242Z,16.40
2022-10-08T14:26:51.567Z,16.30
2022-10-08T14:29:21.176Z,16.30
2022-10-08T14:31:48.261Z,16.30
2022-10-08T14:34:15.168Z,16.20
2022-10-08T14:36:42.637Z,16.30
2022-10-08T14:39:10.719Z,16.30
2022-10-08T14:41:40.001Z,16.30
2022-10-08T14:44:08.240Z,16.30
2022-10-08T14:46:35.190Z,16.20
2022-10-08T14:49:04.021Z,16.20
2022-10-08T14:51:38.244Z,16.20
2022-10-08T14:54:06.480Z,16.10
2022-10-08T14:56:33.417Z,16.00
2022-10-08T14:59:00.716Z,16.00
2022-10-08T15:01:31.622Z,15.90
2022-10-08T15:03:58.508Z,15.90
2022-10-08T15:06:25.842Z,15.90
2022-10-08T15:08:52.679Z,15.90
2022-10-08T15:11:20.235Z,15.90
2022-10-08T15:13:47.011Z,15.90
2022-10-08T15:16:14.616Z,15.90
2022-10-08T15:18:44.198Z,15.90
2022-10-08T15:21:11.095Z,15.80
2022-10-08T15:23:38.290Z,15.90
2022-10-08T15:26:10.794Z,15.80
2022-10-08T15:28:38.518Z,15.90
2022-10-08T15:31:09.793Z,15.90
2022-10-08T15:33:38.489Z,16.00
2022-10-08T15:36:18.262Z,16.00
2022-10-08T15:38:45.379Z,16.00
2022-10-08T15:41:12.225Z,16.10
2022-10-08T15:43:39.468Z,16.00
2022-10-08T15:46:10.549Z,16.00
2022-10-08T15:48:37.967Z,15.90
2022-10-08T15:51:07.332Z,15.90
2022-10-08T15:53:34.664Z,15.90
2022-10-08T15:56:02.139Z,15.80
2022-10-08T15:58:49.513Z,15.80
2022-10-08T16:01:19.526Z,15.70
2022-10-08T16:03:48.247Z,15.60
2022-10-08T16:06:18.411Z,15.60
2022-10-08T16:08:45.379Z,15.50
2022-10-08T16:11:15.314Z,15.40
2022-10-08T16:13:42.660Z,15.40
2022-10-08T16:16:14.778Z,15.30
2022-10-08T16:18:42.196Z,15.20
2022-10-08T16:21:10.657Z,15.20
2022-10-08T16:23:38.965Z,15.10
2022-10-08T16:26:08.336Z,15.10
2022-10-08T16:28:38.160Z,15.10
2022-10-08T16:31:08.556Z,15.00
2022-10-08T16:33:35.864Z,14.90
2022-10-08T16:36:04.519Z,14.90
2022-10-08T16:38:32.972Z,14.90
2022-10-08T16:41:13.107Z,14.90
2022-10-08T16:43:39.955Z,14.80
2022-10-08T16:46:14.544Z,14.80
2022-10-08T16:48:41.972Z,14.70
2022-10-08T16:51:09.091Z,14.60
2022-10-08T16:53:36.341Z,14.60
2022-10-08T16:56:04.161Z,14.50
2022-10-08T16:58:32.437Z,14.50
2022-10-08T17:01:06.519Z,14.40
2022-10-08T17:03:33.155Z,14.40
2022-10-08T17:06:00.696Z,14.30
2022-10-08T17:08:27.518Z,14.30
2022-10-08T17:10:57.185Z,14.20
2022-10-08T17:13:24.348Z,14.10
2022-10-08T17:15:59.904Z,14.10
2022-10-08T17:18:27.035Z,14.00
2022-10-08T17:20:57.196Z,13.90
2022-10-08T17:23:25.917Z,13.90
2022-10-08T17:25:57.042Z,13.90
2022-10-08T17:28:28.210Z,13.80
2022-10-08T17:30:56.975Z,13.70
2022-10-08T17:33:26.019Z,13.70
2022-10-08T17:36:02.912Z,13.70
2022-10-08T17:38:33.637Z,13.60
2022-10-08T17:41:01.026Z,13.50
2022-10-08T17:43:28.608Z,13.50
2022-10-08T17:45:56.002Z,13.40
2022-10-08T17:48:22.912Z,13.40
2022-10-08T17:50:51.460Z,13.30
2022-10-08T17:53:18.240Z,13.30
2022-10-08T17:55:45.535Z,13.10
2022-10-08T17:58:12.333Z,13.10
2022-10-08T18:00:39.450Z,13.00
2022-10-08T18:03:06.866Z,13.00
2022-10-08T18:05:34.268Z,12.90
2022-10-08T18:08:03.433Z,12.90
2022-10-08T18:10:30.304Z,12.90
2022-10-08T18:12:57.174Z,12.80
2022-10-08T18:15:24.807Z,12.80
2022-10-08T18:17:52.073Z,12.70
2022-10-08T18:20:18.962Z,12.60
2022-10-08T18:22:48.876Z,12.60
2022-10-08T18:25:17.463Z,12.50
2022-10-08T18:27:44.733Z,12.50
2022-10-08T18:30:12.488Z,12.50
2022-10-08T18:32:39.612Z,12.40
2022-10-08T18:35:07.222Z,12.40
2022-10-08T18:37:34.210Z,12.40
2022-10-08T18:40:01.099Z,12.30
2022-10-08T18:42:29.600Z,12.20
2022-10-08T18:44:56.389Z,12.20
2022-10-08T18:47:23.849Z,12.20
2022-10-08T18:49:50.652Z,12.10
2022-10-08T18:52:21.381Z,12.00
2022-10-08T18:54:48.554Z,12.00
2022-10-08T18:57:15.342Z,11.90
2022-10-08T18:59:43.587Z,11.90
2022-10-08T19:02:10.561Z,11.80
2022-10-08T19:04:37.731Z,11.80
2022-10-08T19:07:04.620Z,11.70
2022-10-08T19:09:31.590Z,11.70
2022-10-08T19:11:58.536Z,11.70
2022-10-08T19:14:25.795Z,11.60
2022-10-08T19:16:54.960Z,11.60
2022-10-08T19:19:24.301Z,11.50
2022-10-08T19:21:52.005Z,11.50
2022-10-08T19:24:20.738Z,11.40
2022-10-08T19:26:48.359Z,11.40
2022-10-08T19:29:18.156Z,11.40
2022-10-08T19:31:48.777Z,11.40
2022-10-08T19:34:18.812Z,11.40
2022-10-08T19:36:46.390Z,11.30
2022-10-08T19:39:15.593Z,11.30
2022-10-08T19:41:43.215Z,11.30
2022-10-08T19:44:10.331Z,11.30
2022-10-08T19:46:37.477Z,11.30
2022-10-08T19:49:06.606Z,11.20
2022-10-08T19:51:35.227Z,11.10
2022-10-08T19:54:03.342Z,11.10
2022-10-08T19:56:31.217Z,11.10
2022-10-08T19:58:59.032Z,11.00
2022-10-08T20:01:28.195Z,11.00
2022-10-08T20:03:56.456Z,11.00
2022-10-08T20:06:25.406Z,11.00
2022-10-08T20:08:55.195Z,10.90
2022-10-08T20:11:23.106Z,10.90
2022-10-08T20:13:51.804Z,10.90
2022-10-08T20:16:22.070Z,10.90
2022-10-08T20:18:52.330Z,10.90
2022-10-08T20:21:20.488Z,10.80
2022-10-08T20:23:47.853Z,10.70
2022-10-08T20:26:19.032Z,10.70
2022-10-08T20:28:48.946Z,10.70
2022-10-08T20:31:17.934Z,10.60
2022-10-08T20:33:45.891Z,10.60
2022-10-08T20:36:14.573Z,10.60
2022-10-08T20:38:42.606Z,10.50
2022-10-08T20:41:11.181Z,10.60
2022-10-08T20:43:40.235Z,10.60
2022-10-08T20:46:09.282Z,10.60
2022-10-08T20:48:37.361Z,10.60
2022-10-08T20:51:05.579Z,10.50
2022-10-08T20:53:33.314Z,10.50
2022-10-08T20:56:03.716Z,10.50
2022-10-08T20:58:31.544Z,10.50
2022-10-08T21:01:10.987Z,10.40
2022-10-08T21:03:39.729Z,10.40
2022-10-08T21:06:08.009Z,10.40
2022-10-08T21:08:37.492Z,10.40
2022-10-08T21:11:06.581Z,10.40
2022-10-08T21:13:35.371Z,10.40
2022-10-08T21:16:03.709Z,10.30
2022-10-08T21:19:00.929Z,10.30
2022-10-08T21:21:29.950Z,10.30
2022-10-08T21:23:57.599Z,10.30
2022-10-08T21:26:26.655Z,10.30
2022-10-08T21:28:56.637Z,10.20
2022-10-08T21:31:24.573Z,10.20
2022-10-08T21:33:53.188Z,10.20
2022-10-08T21:36:23.995Z,10.20
2022-10-08T21:38:51.192Z,10.20
2022-10-08T21:41:20.115Z,10.10
2022-10-08T21:43:49.104Z,10.10
2022-10-08T21:46:18.010Z,10.10
2022-10-08T21:48:45.115Z,10.10
2022-10-08T21:51:14.508Z,10.00
2022-10-08T21:53:45.964Z,10.00
2022-10-08T21:56:15.634Z,10.00
2022-10-08T21:58:45.099Z,9.90
2022-10-08T22:01:21.184Z,9.90
2022-10-08T22:03:48.659Z,9.90
2022-10-08T22:06:15.775Z,9.90
2022-10-08T22:08:44.317Z,9.90
2022-10-08T22:11:11.175Z,9.90
2022-10-08T22:13:38.477Z,9.90
2022-10-08T22:16:07.841Z,9.90
2022-10-08T22:18:35.758Z,9.80
2022-10-08T22:21:03.920Z,9.80
2022-10-08T22:23:30.951Z,9.80
2022-10-08T22:26:01.123Z,9.70
2022-10-08T22:28:28.624Z,9.70
2022-10-08T22:30:55.610Z,9.70
2022-10-08T22:33:22.809Z,9.70
2022-10-08T22:35:49.734Z,9.70
2022-10-08T22:38:16.827Z,9.70
2022-10-08T22:40:43.716Z,9.70
2022-10-08T22:43:11.877Z,9.60
2022-10-08T22:45:41.425Z,9.60
2022-10-08T22:48:08.301Z,9.60
2022-10-08T22:50:35.593Z,9.60
2022-10-08T22:53:02.635Z,9.60
2022-10-08T22:55:29.982Z,9.60
2022-10-08T22:57:56.976Z,9.50
2022-10-08T23:00:25.691Z,9.60
2022-10-08T23:02:52.975Z,9.50
2022-10-08T23:05:19.761Z,9.50
2022-10-08T23:07:46.942Z,9.40
2022-10-08T23:10:13.921Z,9.40
2022-10-08T23:12:40.985Z,9.40
2022-10-08T23:15:08.686Z,9.40
2022-10-08T23:17:37.504Z,9.40
2022-10-08T23:20:05.568Z,9.40
2022-10-08T23:22:33.503Z,9.40
2022-10-08T23:25:00.886Z,9.40
2022-10-08T23:27:27.680Z,9.40
2022-10-08T23:29:56.112Z,9.40
2022-10-08T23:32:22.930Z,9.30
2022-10-08T23:34:52.338Z,9.30
2022-10-08T23:37:19.679Z,9.30
2022-10-08T23:39:46.458Z,9.20
2022-10-08T23:42:16.036Z,9.20
2022-10-08T23:44:42.990Z,9.20
2022-10-08T23:47:09.757Z,9.20
2022-10-08T23:49:37.139Z,9.20
2022-10-08T23:52:11.252Z,9.20
2022-10-08T23:54:38.531Z,9.10
2022-10-08T23:57:05.399Z,9.10
2022-10-08T23:59:32.654Z,9.10
